createdAt,value
2023-04-20T00:02:29.396Z,11.30
2023-04-20T00:04:56.674Z,11.40
2023-04-20T00:07:41.701Z,11.30
2023-04-20T00:10:09.452Z,11.20
2023-04-20T00:12:36.643Z,11.10
2023-04-20T00:15:04.058Z,11.20
2023-04-20T00:17:31.199Z,11.20
2023-04-20T00:19:58.191Z,11.40
2023-04-20T00:22:26.411Z,11.20
2023-04-20T00:24:53.233Z,11.10
2023-04-20T00:27:20.074Z,11.20
2023-04-20T00:29:46.878Z,11.00
2023-04-20T00:32:13.774Z,10.90
2023-04-20T00:34:40.953Z,10.80
2023-04-20T00:37:07.792Z,10.70
2023-04-20T00:39:34.795Z,10.80
2023-04-20T00:42:06.793Z,10.80
2023-04-20T00:44:34.167Z,10.80
2023-04-20T00:47:01.616Z,10.70
2023-04-20T00:49:30.316Z,10.60
2023-04-20T00:51:59.294Z,10.50
2023-04-20T00:54:31.815Z,10.60
2023-04-20T00:56:59.641Z,10.60
2023-04-20T00:59:26.626Z,10.60
2023-04-20T01:01:53.800Z,10.50
2023-04-20T01:04:21.992Z,10.60
2023-04-20T01:06:49.195Z,10.60
2023-04-20T01:09:16.548Z,10.60
2023-04-20T01:11:43.989Z,10.50
2023-04-20T01:14:10.949Z,10.60
2023-04-20T01:16:38.106Z,10.50
2023-04-20T01:19:05.178Z,10.20
2023-04-20T01:21:32.220Z,10.20
2023-04-20T01:23:59.107Z,10.30
2023-04-20T01:26:26.188Z,10.20
2023-04-20T01:28:53.488Z,10.20
2023-04-20T01:31:20.463Z,10.30
2023-04-20T01:33:47.380Z,10.40
2023-04-20T01:36:14.735Z,10.40
2023-04-20T01:38:41.750Z,10.20
2023-04-20T01:41:09.998Z,10.10
2023-04-20T01:43:38.629Z,10.20
2023-04-20T01:46:06.326Z,10.00
2023-04-20T01:48:33.927Z,10.10
2023-04-20T01:51:00.863Z,10.00
2023-04-20T01:53:27.984Z,10.10
2023-04-20T01:55:55.914Z,10.10
2023-04-20T01:58:22.880Z,9.80
2023-04-20T02:00:49.985Z,9.90
2023-04-20T02:03:17.462Z,9.90
2023-04-20T02:05:44.724Z,9.90
2023-04-20T02:08:11.782Z,9.80
2023-04-20T02:10:38.610Z,9.70
2023-04-20T02:13:05.483Z,9.80
2023-04-20T02:15:32.442Z,9.70
2023-04-20T02:17:59.405Z,9.70
2023-04-20T02:20:26.553Z,9.80
2023-04-20T02:22:53.614Z,9.80
2023-04-20T02:25:21.547Z,9.70
2023-04-20T02:27:48.503Z,9.70
2023-04-20T02:30:15.657Z,9.60
2023-04-20T02:32:43.659Z,9.70
2023-04-20T02:35:10.923Z,9.70
2023-04-20T02:37:37.767Z,9.70
2023-04-20T02:40:05.846Z,9.60
2023-04-20T02:42:32.722Z,9.50
2023-04-20T02:44:59.726Z,9.70
2023-04-20T02:47:26.599Z,9.80
2023-04-20T02:49:53.504Z,9.90
2023-04-20T02:52:20.785Z,9.80
2023-04-20T02:54:47.718Z,9.90
2023-04-20T02:57:14.837Z,9.80
2023-04-20T02:59:41.759Z,9.80
2023-04-20T03:02:08.761Z,9.70
2023-04-20T03:04:35.753Z,9.70
2023-04-20T03:07:03.882Z,9.70
2023-04-20T03:09:31.273Z,9.70
2023-04-20T03:11:58.193Z,9.50
2023-04-20T03:14:25.839Z,9.50
2023-04-20T03:16:53.174Z,9.60
2023-04-20T03:19:20.179Z,9.70
2023-04-20T03:21:47.005Z,9.70
2023-04-20T03:24:14.027Z,9.70
2023-04-20T03:26:41.330Z,9.70
2023-04-20T03:29:08.162Z,9.60
2023-04-20T03:31:35.207Z,9.60
2023-04-20T03:34:02.352Z,9.60
2023-04-20T03:36:29.313Z,9.60
2023-04-20T03:38:56.498Z,9.60
2023-04-20T03:41:23.453Z,9.50
2023-04-20T03:43:50.226Z,9.50
2023-04-20T03:46:17.283Z,9.50
2023-04-20T03:48:44.327Z,9.50
2023-04-20T03:51:11.103Z,9.40
2023-04-20T03:53:39.591Z,9.40
2023-04-20T03:56:07.620Z,9.30
2023-04-20T03:58:34.549Z,9.10
2023-04-20T04:01:03.239Z,9.20
2023-04-20T04:03:30.398Z,9.10
2023-04-20T04:05:57.284Z,9.10
2023-04-20T04:08:24.226Z,9.20
2023-04-20T04:10:51.410Z,9.20
2023-04-20T04:13:18.589Z,9.20
2023-04-20T04:15:46.098Z,9.30
2023-04-20T04:18:13.133Z,9.20
2023-04-20T04:20:40.200Z,9.10
2023-04-20T04:23:07.213Z,9.00
2023-04-20T04:25:34.207Z,9.00
2023-04-20T04:28:01.123Z,9.00
2023-04-20T04:30:31.804Z,9.00
2023-04-20T04:32:59.898Z,8.90
2023-04-20T04:35:26.929Z,8.80
2023-04-20T04:37:54.274Z,8.80
2023-04-20T04:40:21.263Z,8.70
2023-04-20T04:42:48.710Z,8.70
2023-04-20T04:45:16.580Z,8.70
2023-04-20T04:47:43.821Z,8.60
2023-04-20T04:50:11.394Z,8.50
2023-04-20T04:52:38.195Z,8.50
2023-04-20T04:55:08.435Z,8.30
2023-04-20T04:57:36.272Z,8.30
2023-04-20T05:00:08.000Z,8.40
2023-04-20T05:02:35.899Z,8.50
2023-04-20T05:05:03.253Z,8.50
2023-04-20T05:07:30.536Z,8.50
2023-04-20T05:09:57.451Z,8.60
2023-04-20T05:12:25.760Z,8.60
2023-04-20T05:14:53.272Z,8.70
2023-04-20T05:17:20.127Z,8.50
2023-04-20T05:19:47.392Z,8.40
2023-04-20T05:22:14.734Z,8.50
2023-04-20T05:24:42.646Z,8.60
2023-04-20T05:27:11.292Z,8.50
2023-04-20T05:29:39.113Z,8.40
2023-04-20T05:32:06.378Z,8.40
2023-04-20T05:34:33.958Z,8.50
2023-04-20T05:37:01.392Z,8.50
2023-04-20T05:39:28.360Z,8.60
2023-04-20T05:41:55.468Z,8.70
2023-04-20T05:44:25.688Z,8.80
2023-04-20T05:46:52.880Z,8.80
2023-04-20T05:49:20.116Z,9.00
2023-04-20T05:51:47.127Z,9.20
2023-04-20T05:54:14.263Z,9.30
2023-04-20T05:56:43.454Z,9.40
2023-04-20T05:59:10.599Z,9.40
2023-04-20T06:01:37.486Z,9.50
2023-04-20T06:04:04.557Z,9.60
2023-04-20T06:06:32.488Z,9.50
2023-04-20T06:08:59.503Z,9.70
2023-04-20T06:11:26.530Z,9.80
2023-04-20T06:13:53.497Z,9.90
2023-04-20T06:16:20.465Z,9.90
2023-04-20T06:18:47.344Z,10.00
2023-04-20T06:21:17.322Z,9.90
2023-04-20T06:23:47.066Z,10.00
2023-04-20T06:26:14.124Z,10.10
2023-04-20T06:28:41.697Z,10.30
2023-04-20T06:31:08.681Z,10.20
2023-04-20T06:33:35.678Z,10.30
2023-04-20T06:36:02.575Z,10.50
2023-04-20T06:38:29.611Z,10.70
2023-04-20T06:40:58.898Z,10.80
2023-04-20T06:43:25.854Z,10.70
2023-04-20T06:45:52.682Z,10.70
2023-04-20T06:48:31.495Z,10.70
2023-04-20T06:50:59.412Z,10.70
2023-04-20T06:53:26.362Z,10.70
2023-04-20T06:55:56.643Z,11.00
2023-04-20T06:58:23.879Z,10.90
2023-04-20T07:00:50.986Z,11.00
2023-04-20T07:03:19.358Z,10.90
2023-04-20T07:05:49.211Z,11.00
2023-04-20T07:08:16.293Z,11.20
2023-04-20T07:10:43.495Z,11.20
2023-04-20T07:13:10.590Z,11.30
2023-04-20T07:15:37.549Z,11.30
2023-04-20T07:18:04.685Z,11.40
2023-04-20T07:20:31.869Z,11.50
2023-04-20T07:22:58.822Z,11.50
2023-04-20T07:25:25.954Z,11.80
2023-04-20T07:27:53.083Z,11.50
2023-04-20T07:30:20.068Z,11.50
2023-04-20T07:32:46.996Z,11.50
2023-04-20T07:35:14.089Z,11.50
2023-04-20T07:37:41.262Z,11.40
2023-04-20T07:40:09.379Z,11.50
2023-04-20T07:42:37.390Z,11.50
2023-04-20T07:45:06.001Z,11.70
2023-04-20T07:47:37.836Z,11.70
2023-04-20T07:50:06.430Z,11.50
2023-04-20T07:52:33.751Z,11.60
2023-04-20T07:55:00.682Z,11.60
2023-04-20T07:57:28.345Z,11.80
2023-04-20T07:59:55.221Z,11.90
2023-04-20T08:02:22.945Z,12.00
2023-04-20T08:04:51.800Z,11.80
2023-04-20T08:07:18.935Z,11.80
2023-04-20T08:09:45.917Z,11.90
2023-04-20T08:12:13.177Z,11.90
2023-04-20T08:14:41.291Z,12.00
2023-04-20T08:17:08.514Z,11.90
2023-04-20T08:19:36.304Z,12.00
2023-04-20T08:22:05.113Z,12.00
2023-04-20T08:24:34.105Z,11.80
2023-04-20T08:27:01.716Z,11.80
2023-04-20T08:29:28.676Z,11.80
2023-04-20T08:31:56.115Z,11.90
2023-04-20T08:34:23.024Z,11.80
2023-04-20T08:36:50.034Z,11.80
2023-04-20T08:39:21.823Z,11.90
2023-04-20T08:41:54.006Z,11.80
2023-04-20T08:44:21.094Z,11.60
2023-04-20T08:46:49.262Z,11.40
2023-04-20T08:49:17.689Z,11.50
2023-04-20T08:51:46.395Z,11.40
2023-04-20T08:54:13.654Z,11.50
2023-04-20T08:56:42.564Z,11.50
2023-04-20T08:59:10.441Z,11.60
2023-04-20T09:01:39.609Z,11.50
2023-04-20T09:04:20.539Z,11.60
2023-04-20T09:06:51.080Z,11.70
2023-04-20T09:09:20.131Z,11.70
2023-04-20T09:11:47.806Z,11.90
2023-04-20T09:14:17.017Z,11.90
2023-04-20T09:16:53.219Z,12.10
2023-04-20T09:19:27.022Z,12.30
2023-04-20T09:21:56.969Z,12.40
2023-04-20T09:24:32.016Z,12.50
2023-04-20T09:26:59.355Z,12.70
2023-04-20T09:29:26.210Z,12.90
2023-04-20T09:31:53.732Z,12.80
2023-04-20T09:34:21.574Z,13.10
2023-04-20T09:36:50.688Z,13.20
2023-04-20T09:39:24.809Z,13.20
2023-04-20T09:41:52.852Z,13.30
2023-04-20T09:44:20.031Z,13.20
2023-04-20T09:46:47.367Z,13.10
2023-04-20T09:49:15.066Z,13.00
2023-04-20T09:51:47.780Z,13.00
2023-04-20T09:54:15.944Z,13.10
2023-04-20T09:56:43.609Z,13.10
2023-04-20T09:59:12.775Z,13.00
2023-04-20T10:01:40.108Z,13.20
2023-04-20T10:04:11.048Z,13.20
2023-04-20T10:06:38.561Z,13.20
2023-04-20T10:09:07.645Z,13.30
2023-04-20T10:11:52.559Z,13.00
2023-04-20T10:14:25.660Z,12.90
2023-04-20T10:17:03.722Z,12.90
2023-04-20T10:19:44.935Z,12.80
2023-04-20T10:22:14.186Z,12.80
2023-04-20T10:24:41.002Z,12.70
2023-04-20T10:27:21.717Z,12.70
2023-04-20T10:29:49.136Z,12.70
2023-04-20T10:32:27.428Z,12.70
2023-04-20T10:35:08.703Z,12.60
2023-04-20T10:37:36.349Z,12.60
2023-04-20T10:40:08.141Z,12.50
2023-04-20T10:42:45.219Z,12.50
2023-04-20T10:45:13.057Z,12.50
2023-04-20T10:47:42.749Z,12.30
2023-04-20T10:50:12.315Z,12.20
2023-04-20T10:52:42.048Z,12.20
2023-04-20T10:55:26.301Z,12.20
2023-04-20T10:57:54.117Z,12.40
2023-04-20T11:00:24.244Z,12.60
2023-04-20T11:02:53.686Z,12.50
2023-04-20T11:05:24.499Z,12.60
2023-04-20T11:07:56.176Z,12.40
2023-04-20T11:10:25.952Z,12.40
2023-04-20T11:12:53.335Z,12.40
2023-04-20T11:15:30.881Z,12.40
2023-04-20T11:18:10.072Z,12.40
2023-04-20T11:20:37.755Z,12.60
2023-04-20T11:23:06.114Z,12.60
2023-04-20T11:25:33.043Z,12.70
2023-04-20T11:28:09.940Z,12.40
2023-04-20T11:30:41.466Z,12.30
2023-04-20T11:33:09.575Z,12.30
2023-04-20T11:35:41.603Z,12.30
2023-04-20T11:38:09.061Z,12.20
2023-04-20T11:40:36.343Z,12.40
2023-04-20T11:43:04.816Z,12.40
2023-04-20T11:45:36.718Z,12.30
2023-04-20T11:48:05.087Z,12.10
2023-04-20T11:50:32.403Z,12.20
2023-04-20T11:52:59.548Z,12.30
2023-04-20T11:55:26.359Z,12.30
2023-04-20T11:57:56.349Z,12.20
2023-04-20T12:00:23.367Z,12.00
2023-04-20T12:02:50.630Z,12.00
2023-04-20T12:05:17.920Z,11.90
2023-04-20T12:07:44.816Z,11.90
2023-04-20T12:10:11.873Z,12.10
2023-04-20T12:12:38.745Z,12.10
2023-04-20T12:15:06.748Z,12.20
2023-04-20T12:17:33.665Z,12.30
2023-04-20T12:20:00.790Z,12.10
2023-04-20T12:22:27.630Z,12.10
2023-04-20T12:24:54.556Z,12.00
2023-04-20T12:27:21.563Z,12.20
2023-04-20T12:29:48.618Z,12.20
2023-04-20T12:32:15.608Z,12.20
2023-04-20T12:34:42.623Z,12.10
2023-04-20T12:37:09.950Z,12.20
2023-04-20T12:39:36.766Z,12.50
2023-04-20T12:42:04.210Z,12.80
2023-04-20T12:44:31.440Z,13.20
2023-04-20T12:46:58.473Z,13.40
2023-04-20T12:49:26.363Z,13.70
2023-04-20T12:51:53.210Z,13.90
2023-04-20T12:54:20.495Z,14.10
2023-04-20T12:56:47.810Z,14.30
2023-04-20T12:59:14.933Z,14.30
2023-04-20T13:01:41.817Z,14.30
2023-04-20T13:04:08.791Z,14.10
2023-04-20T13:06:36.041Z,14.10
2023-04-20T13:09:04.242Z,14.00
2023-04-20T13:11:31.134Z,14.10
2023-04-20T13:13:58.262Z,13.80
2023-04-20T13:16:25.143Z,13.70
2023-04-20T13:18:52.192Z,13.50
2023-04-20T13:21:19.102Z,13.40
2023-04-20T13:23:45.964Z,13.40
2023-04-20T13:26:12.868Z,13.20
2023-04-20T13:28:39.896Z,13.00
2023-04-20T13:31:06.825Z,13.00
2023-04-20T13:33:34.390Z,13.00
2023-04-20T13:36:01.330Z,12.90
2023-04-20T13:38:28.159Z,12.80
2023-04-20T13:40:54.943Z,12.90
2023-04-20T13:43:21.926Z,12.90
2023-04-20T13:45:48.830Z,12.80
2023-04-20T13:48:15.869Z,12.80
2023-04-20T13:50:43.481Z,12.90
2023-04-20T13:53:10.559Z,13.00
2023-04-20T13:55:37.459Z,13.10
2023-04-20T13:58:04.353Z,13.20
2023-04-20T14:00:32.539Z,13.20
2023-04-20T14:03:03.043Z,13.10
2023-04-20T14:05:30.163Z,13.20
2023-04-20T14:08:01.425Z,13.50
2023-04-20T14:10:28.992Z,13.70
2023-04-20T14:12:56.013Z,13.90
2023-04-20T14:15:22.889Z,14.10
2023-04-20T14:17:51.680Z,14.50
2023-04-20T14:20:19.547Z,15.20
2023-04-20T14:22:46.451Z,15.60
2023-04-20T14:25:13.599Z,15.90
2023-04-20T14:27:40.509Z,16.00
2023-04-20T14:30:08.481Z,16.10
2023-04-20T14:32:36.175Z,16.20
2023-04-20T14:35:05.550Z,16.20
2023-04-20T14:37:33.178Z,15.80
2023-04-20T14:39:59.994Z,15.60
2023-04-20T14:42:27.011Z,15.40
2023-04-20T14:44:54.204Z,15.10
2023-04-20T14:47:21.112Z,14.80
2023-04-20T14:49:48.135Z,14.70
2023-04-20T14:52:14.980Z,14.70
2023-04-20T14:54:41.919Z,14.80
2023-04-20T14:57:08.995Z,14.60
2023-04-20T14:59:37.249Z,14.30
2023-04-20T15:02:05.961Z,14.30
2023-04-20T15:04:33.242Z,14.30
2023-04-20T15:07:00.227Z,14.20
2023-04-20T15:09:27.250Z,13.90
2023-04-20T15:11:54.058Z,13.70
2023-04-20T15:14:21.287Z,13.50
2023-04-20T15:16:48.278Z,13.50
2023-04-20T15:19:15.210Z,13.30
2023-04-20T15:21:42.784Z,13.30
2023-04-20T15:24:11.420Z,12.90
2023-04-20T15:26:38.428Z,12.70
2023-04-20T15:29:05.328Z,12.90
2023-04-20T15:31:32.370Z,12.90
2023-04-20T15:34:00.342Z,13.20
2023-04-20T15:36:27.680Z,13.00
2023-04-20T15:38:57.574Z,13.10
2023-04-20T15:41:24.836Z,13.00
2023-04-20T15:43:51.612Z,13.10
2023-04-20T15:46:18.980Z,13.20
2023-04-20T15:48:45.984Z,13.10
2023-04-20T15:51:13.071Z,13.20
2023-04-20T15:53:39.905Z,13.00
2023-04-20T15:56:06.995Z,13.20
2023-04-20T15:58:33.913Z,13.70
2023-04-20T16:01:00.872Z,14.20
2023-04-20T16:03:28.112Z,14.30
2023-04-20T16:05:55.598Z,14.70
2023-04-20T16:08:24.904Z,14.90
2023-04-20T16:10:52.094Z,15.10
2023-04-20T16:13:19.211Z,15.40
2023-04-20T16:15:46.274Z,15.10
2023-04-20T16:18:13.401Z,15.60
2023-04-20T16:20:41.475Z,15.70
2023-04-20T16:23:08.600Z,15.10
2023-04-20T16:25:36.554Z,15.30
2023-04-20T16:28:04.145Z,15.30
2023-04-20T16:30:33.149Z,15.60
2023-04-20T16:33:00.297Z,15.50
2023-04-20T16:35:27.466Z,15.40
2023-04-20T16:37:54.876Z,15.30
2023-04-20T16:40:22.025Z,15.10
2023-04-20T16:42:48.998Z,14.70
2023-04-20T16:45:16.272Z,14.60
2023-04-20T16:47:43.253Z,14.50
2023-04-20T16:50:12.517Z,14.60
2023-04-20T16:52:39.541Z,14.30
2023-04-20T16:55:07.202Z,14.00
2023-04-20T16:57:34.063Z,13.80
2023-04-20T17:00:00.919Z,13.60
2023-04-20T17:02:32.932Z,13.60
2023-04-20T17:05:00.841Z,13.40
2023-04-20T17:07:29.274Z,13.20
2023-04-20T17:09:56.185Z,13.00
2023-04-20T17:12:23.221Z,12.80
2023-04-20T17:14:50.112Z,12.80
2023-04-20T17:17:17.012Z,12.80
2023-04-20T17:19:44.012Z,12.80
2023-04-20T17:22:10.943Z,12.70
2023-04-20T17:24:37.782Z,12.80
2023-04-20T17:27:04.881Z,12.70
2023-04-20T17:29:34.942Z,12.60
2023-04-20T17:32:01.824Z,12.60
2023-04-20T17:34:28.910Z,12.60
2023-04-20T17:36:55.804Z,12.50
2023-04-20T17:39:23.858Z,12.40
2023-04-20T17:41:50.884Z,12.40
2023-04-20T17:44:18.112Z,12.40
2023-04-20T17:46:45.233Z,12.40
2023-04-20T17:49:12.171Z,12.40
2023-04-20T17:51:39.339Z,12.30
2023-04-20T17:54:07.998Z,12.30
2023-04-20T17:56:34.869Z,12.20
2023-04-20T17:59:02.069Z,11.90
2023-04-20T18:01:30.721Z,11.90
2023-04-20T18:03:59.853Z,11.80
2023-04-20T18:06:28.123Z,11.80
2023-04-20T18:08:56.367Z,11.90
2023-04-20T18:11:23.640Z,12.00
2023-04-20T18:13:50.789Z,12.10
2023-04-20T18:16:18.135Z,12.10
2023-04-20T18:18:45.038Z,12.00
2023-04-20T18:21:14.367Z,12.00
2023-04-20T18:23:41.333Z,12.00
2023-04-20T18:26:10.354Z,11.90
2023-04-20T18:28:37.306Z,11.90
2023-04-20T18:31:04.204Z,11.70
2023-04-20T18:33:31.131Z,11.60
2023-04-20T18:35:58.004Z,11.60
2023-04-20T18:38:24.868Z,11.70
2023-04-20T18:40:51.700Z,11.50
2023-04-20T18:43:18.599Z,11.50
2023-04-20T18:45:45.524Z,11.40
2023-04-20T18:48:12.725Z,11.30
2023-04-20T18:50:39.683Z,11.30
2023-04-20T18:53:06.570Z,11.30
2023-04-20T18:55:33.612Z,11.40
2023-04-20T18:58:00.718Z,11.30
2023-04-20T19:00:27.989Z,11.30
2023-04-20T19:02:55.152Z,11.30
2023-04-20T19:05:24.537Z,11.20
2023-04-20T19:07:51.465Z,11.00
2023-04-20T19:10:18.539Z,11.00
2023-04-20T19:12:45.436Z,11.00
2023-04-20T19:15:12.307Z,10.90
2023-04-20T19:17:39.445Z,10.80
2023-04-20T19:20:10.264Z,10.80
2023-04-20T19:22:37.170Z,10.70
2023-04-20T19:25:05.636Z,10.60
2023-04-20T19:27:32.550Z,10.50
2023-04-20T19:29:59.419Z,10.30
2023-04-20T19:32:26.606Z,10.30
2023-04-20T19:34:57.287Z,10.00
2023-04-20T19:37:24.179Z,10.10
2023-04-20T19:39:50.996Z,10.20
2023-04-20T19:42:18.765Z,10.20
2023-04-20T19:44:46.446Z,10.30
2023-04-20T19:47:13.637Z,10.40
2023-04-20T19:49:40.806Z,10.50
2023-04-20T19:52:07.957Z,10.50
2023-04-20T19:54:35.057Z,10.50
2023-04-20T19:57:02.109Z,10.60
2023-04-20T19:59:30.363Z,10.50
2023-04-20T20:01:57.486Z,10.50
2023-04-20T20:04:24.482Z,10.60
2023-04-20T20:06:51.614Z,10.60
2023-04-20T20:09:21.599Z,10.50
2023-04-20T20:11:50.604Z,10.50
2023-04-20T20:14:18.096Z,10.60
2023-04-20T20:16:45.171Z,10.60
2023-04-20T20:19:12.084Z,10.60
2023-04-20T20:21:38.858Z,10.60
2023-04-20T20:24:05.942Z,10.60
2023-04-20T20:26:33.181Z,10.60
2023-04-20T20:29:00.330Z,10.50
2023-04-20T20:31:27.458Z,10.50
2023-04-20T20:33:55.013Z,10.40
2023-04-20T20:36:22.415Z,10.40
2023-04-20T20:38:49.247Z,10.30
2023-04-20T20:41:16.812Z,10.20
2023-04-20T20:43:43.818Z,10.10
2023-04-20T20:46:10.921Z,10.10
2023-04-20T20:48:37.958Z,10.00
2023-04-20T20:51:04.983Z,9.90
2023-04-20T20:53:31.845Z,9.90
2023-04-20T20:55:58.842Z,10.10
2023-04-20T20:58:25.913Z,9.90
2023-04-20T21:00:55.048Z,9.90
2023-04-20T21:03:50.023Z,9.90
2023-04-20T21:06:17.571Z,9.90
2023-04-20T21:08:44.585Z,10.00
2023-04-20T21:11:11.561Z,9.90
2023-04-20T21:13:38.579Z,10.00
2023-04-20T21:16:05.937Z,9.80
2023-04-20T21:18:32.984Z,10.00
2023-04-20T21:20:59.793Z,9.90
2023-04-20T21:23:26.728Z,10.00
2023-04-20T21:25:53.601Z,9.90
2023-04-20T21:28:20.727Z,10.00
2023-04-20T21:30:47.758Z,9.90
2023-04-20T21:33:14.804Z,9.90
2023-04-20T21:35:41.769Z,9.80
2023-04-20T21:38:08.741Z,9.90
2023-04-20T21:40:35.947Z,9.80
2023-04-20T21:43:02.928Z,9.90
2023-04-20T21:45:29.907Z,9.90
2023-04-20T21:47:56.736Z,9.80
2023-04-20T21:50:27.476Z,9.70
2023-04-20T21:52:57.321Z,9.60
2023-04-20T21:55:24.498Z,9.70
2023-04-20T21:57:51.585Z,9.60
2023-04-20T22:00:18.569Z,9.60
2023-04-20T22:02:45.888Z,9.50
2023-04-20T22:05:13.586Z,9.70
2023-04-20T22:07:40.770Z,9.60
2023-04-20T22:10:08.380Z,9.80
2023-04-20T22:12:40.343Z,9.70
2023-04-20T22:15:10.046Z,9.70
2023-04-20T22:17:37.962Z,9.70
2023-04-20T22:20:10.684Z,9.50
2023-04-20T22:22:38.480Z,9.50
2023-04-20T22:25:07.303Z,9.50
2023-04-20T22:27:35.354Z,9.60
2023-04-20T22:30:02.539Z,9.60
2023-04-20T22:32:29.543Z,9.50
2023-04-20T22:34:56.601Z,9.50
2023-04-20T22:37:23.466Z,9.40
2023-04-20T22:39:50.638Z,9.30
2023-04-20T22:42:17.739Z,9.10
2023-04-20T22:44:45.804Z,8.90
2023-04-20T22:47:12.721Z,9.00
2023-04-20T22:49:39.544Z,9.10
2023-04-20T22:52:06.894Z,8.90
2023-04-20T22:54:33.824Z,8.80
2023-04-20T22:57:02.090Z,8.80
2023-04-20T22:59:28.952Z,8.90
2023-04-20T23:01:55.825Z,8.90
2023-04-20T23:04:22.727Z,8.70
2023-04-20T23:06:49.535Z,8.60
2023-04-20T23:09:20.578Z,8.60
2023-04-20T23:11:47.645Z,8.50
2023-04-20T23:14:14.525Z,8.60
2023-04-20T23:16:41.503Z,8.40
2023-04-20T23:19:08.403Z,8.30
2023-04-20T23:21:35.247Z,8.40
2023-04-20T23:24:02.124Z,8.30
2023-04-20T23:26:29.038Z,8.30
2023-04-20T23:28:55.910Z,8.50
2023-04-20T23:31:22.893Z,8.50
2023-04-20T23:33:50.008Z,8.40
2023-04-20T23:36:17.002Z,8.40
2023-04-20T23:38:44.028Z,8.40
2023-04-20T23:41:15.664Z,8.50
2023-04-20T23:43:42.565Z,8.50
2023-04-20T23:46:09.629Z,8.60
2023-04-20T23:48:36.704Z,8.60
2023-04-20T23:51:03.755Z,8.50
2023-04-20T23:53:30.715Z,8.50
2023-04-20T23:55:57.713Z,8.30
2023-04-20T23:58:25.884Z,8.40
